Ash Creek, OR

6:55 AM PDT on November 01, 2014 (GMT -0700)
South Burlingame | Change Station
CLOSE
Current Station
Personal Weather Station
Location: Portland, OR
Elevation: 446 ft
Nearby Weather Stations

Elev 446 ft 45.46 °N, 122.68 °W | Updated 2 seconds ago

Overcast
Overcast
47.5 °F
Feels Like 48 °F
N
0.0
Wind Variable Wind from North
Gusts 0.0 mph

Today
High -- | Low -- °F
--% Chance of Precip.
Yesterday
High -- | Low -- °F
Precip. -- in
7:50 AM 5:57 PM
Waxing Gibbous, 66% visible
Pressure 29.84 in
Visibility 0.2 miles
Clouds
Windchill 48 °F
Dew Point 45 °F
Humidity 92%
Rainfall 0.00 in
Snow Depth Not available.
UV Not available.
Pollen .50 out of 12
Air Quality Not available.
Flu Activity Not available.
METAR KHIO 011253Z 00000KT M1/4SM R13/1600V2000FT FG VV002 06/06 A2984 RMK AO2 SLP104 T00610061 $

More Conditions Fewer Conditions

Pressure 29.84 in
Visibility 0.2 miles
Clouds
Windchill 48 °F
Dew Point 45 °F
Humidity 92%
Rainfall 0.00 in
Snow Depth Not available.
UV Not available.
Pollen .50 out of 12
Air Quality Not available.
Flu Activity Not available.
METAR KHIO 011253Z 00000KT M1/4SM R13/1600V2000FT FG VV002 06/06 A2984 RMK AO2 SLP104 T00610061 $

More Conditions Fewer Conditions

Nowcast | as of 5:37 am PDT on November 1, 2014

At 530 am...areas of fog continued to be over parts of southwest Washington and northwest Oregon...in the inland valleys as well as the coast. The lowest visibilities were one quarter mile at Scappoose...Hillsboro...McMinnville...and Astoria airports...with one half mile at Newport Airport and three quarters of a mile at Corvallis Airport. Areas of fog will continue much of this morning both inland and along the coast. Use caution and slow down if driving through foggy areas this morning.

×

10-Day Weather Forecast

Almanac

Astronomy

Nov. 01, 2014 Rise Set
Actual Time
Civil Twilight
Nautical Twilight
Astronomical Twilight
Moon
Length of Visible Light
Length of Day
Tomorrow will be .
, % of the Moon is Illuminated

Today's Extremes

State Highs State Lows

Community

WunderPhotos

Upload Photos

1,766,937 photos uploaded!

WunderBlogs® & News

Nearby

Air Quality

  Air Quality AQ Index Pollutant
Not available.

Snow Depth

Station Depth Elevation

Earthquake Activity

City Distance Mag. Time & Date
Minimum magnitude displayed is 2.5.

Coastal Water Temperatures

Place Temperature

Nearby Weather Stations